sensor_id;sensor_type;location;lat;lon;timestamp;pressure;altitude;pressure_sealevel;temperature;humidity
45621;BME280;31345;51.522;10.702;2023-06-14T00:00:16;99119.31;;;12.76;84.70
45621;BME280;31345;51.522;10.702;2023-06-14T00:02:50;99114.94;;;12.88;84.18
45621;BME280;31345;51.522;10.702;2023-06-14T00:05:22;99107.78;;;12.90;85.55
45621;BME280;31345;51.522;10.702;2023-06-14T00:07:55;99114.81;;;12.90;83.41
45621;BME280;31345;51.522;10.702;2023-06-14T00:10:27;99108.09;;;12.74;84.06
45621;BME280;31345;51.522;10.702;2023-06-14T00:13:02;99102.69;;;12.64;84.36
45621;BME280;31345;51.522;10.702;2023-06-14T00:15:30;99108.72;;;12.53;86.12
45621;BME280;31345;51.522;10.702;2023-06-14T00:18:04;99105.44;;;12.63;85.66
45621;BME280;31345;51.522;10.702;2023-06-14T00:20:37;99107.44;;;12.59;85.41
45621;BME280;31345;51.522;10.702;2023-06-14T00:23:10;99107.22;;;12.62;85.25
45621;BME280;31345;51.522;10.702;2023-06-14T00:25:37;99103.03;;;12.59;85.83
45621;BME280;31345;51.522;10.702;2023-06-14T00:28:10;99106.84;;;12.55;84.99
45621;BME280;31345;51.522;10.702;2023-06-14T00:30:37;99101.81;;;12.52;85.42
45621;BME280;31345;51.522;10.702;2023-06-14T00:33:11;99103.09;;;12.46;86.02
45621;BME280;31345;51.522;10.702;2023-06-14T00:35:44;99104.75;;;12.36;86.89
45621;BME280;31345;51.522;10.702;2023-06-14T00:38:16;99106.66;;;12.21;87.91
45621;BME280;31345;51.522;10.702;2023-06-14T00:40:44;99097.59;;;12.14;88.26
45621;BME280;31345;51.522;10.702;2023-06-14T00:43:13;99095.81;;;12.14;88.19
45621;BME280;31345;51.522;10.702;2023-06-14T00:45:45;99103.28;;;12.07;88.67
45621;BME280;31345;51.522;10.702;2023-06-14T00:48:22;99105.19;;;11.92;89.06
45621;BME280;31345;51.522;10.702;2023-06-14T00:50:55;99104.59;;;11.76;90.66
45621;BME280;31345;51.522;10.702;2023-06-14T00:53:28;99102.84;;;11.63;91.33
45621;BME280;31345;51.522;10.702;2023-06-14T00:56:01;99096.56;;;11.53;92.60
45621;BME280;31345;51.522;10.702;2023-06-14T00:58:34;99108.00;;;11.52;92.85
45621;BME280;31345;51.522;10.702;2023-06-14T01:01:01;99112.91;;;11.56;93.51
45621;BME280;31345;51.522;10.702;2023-06-14T01:03:39;99108.53;;;11.44;94.03
45621;BME280;31345;51.522;10.702;2023-06-14T01:06:19;99119.19;;;11.41;94.60
45621;BME280;31345;51.522;10.702;2023-06-14T01:09:06;99119.13;;;11.29;94.97
45621;BME280;31345;51.522;10.702;2023-06-14T01:11:47;99125.06;;;11.44;93.69
45621;BME280;31345;51.522;10.702;2023-06-14T01:14:23;99124.97;;;11.46;93.81
45621;BME280;31345;51.522;10.702;2023-06-14T01:16:58;99126.13;;;11.29;95.27
45621;BME280;31345;51.522;10.702;2023-06-14T01:19:33;99123.72;;;11.26;95.40
45621;BME280;31345;51.522;10.702;2023-06-14T01:22:02;99134.81;;;11.42;94.64
45621;BME280;31345;51.522;10.702;2023-06-14T01:24:31;99128.66;;;11.43;94.92
45621;BME280;31345;51.522;10.702;2023-06-14T01:27:06;99130.81;;;11.50;93.71
45621;BME280;31345;51.522;10.702;2023-06-14T01:29:35;99126.97;;;11.29;94.91
45621;BME280;31345;51.522;10.702;2023-06-14T01:32:03;99124.03;;;11.34;95.38
45621;BME280;31345;51.522;10.702;2023-06-14T01:34:36;99121.41;;;11.21;94.73
45621;BME280;31345;51.522;10.702;2023-06-14T01:37:10;99126.88;;;11.18;94.84
45621;BME280;31345;51.522;10.702;2023-06-14T01:39:45;99125.28;;;11.15;96.02
45621;BME280;31345;51.522;10.702;2023-06-14T01:42:15;99118.16;;;11.17;95.96
45621;BME280;31345;51.522;10.702;2023-06-14T01:44:49;99128.84;;;11.14;96.28
45621;BME280;31345;51.522;10.702;2023-06-14T01:47:20;99127.16;;;11.13;96.40
45621;BME280;31345;51.522;10.702;2023-06-14T01:49:53;99133.88;;;11.17;96.33
45621;BME280;31345;51.522;10.702;2023-06-14T01:52:21;99128.44;;;11.21;95.29
45621;BME280;31345;51.522;10.702;2023-06-14T01:54:51;99125.16;;;11.17;96.70
45621;BME280;31345;51.522;10.702;2023-06-14T01:57:24;99130.63;;;11.14;96.56
45621;BME280;31345;51.522;10.702;2023-06-14T01:59:57;99129.16;;;11.10;97.28
45621;BME280;31345;51.522;10.702;2023-06-14T02:02:25;99116.91;;;11.10;97.14
45621;BME280;31345;51.522;10.702;2023-06-14T02:04:53;99129.38;;;11.20;96.85
45621;BME280;31345;51.522;10.702;2023-06-14T02:07:29;99126.84;;;11.31;95.00
45621;BME280;31345;51.522;10.702;2023-06-14T02:09:58;99133.44;;;11.37;94.73
45621;BME280;31345;51.522;10.702;2023-06-14T02:12:28;99132.63;;;10.97;96.01
45621;BME280;31345;51.522;10.702;2023-06-14T02:15:03;99137.00;;;10.97;96.92
45621;BME280;31345;51.522;10.702;2023-06-14T02:17:32;99140.13;;;11.02;96.39
45621;BME280;31345;51.522;10.702;2023-06-14T02:20:07;99139.41;;;11.00;98.08
45621;BME280;31345;51.522;10.702;2023-06-14T02:22:40;99140.97;;;11.02;96.35
45621;BME280;31345;51.522;10.702;2023-06-14T02:25:09;99137.38;;;10.90;95.91
45621;BME280;31345;51.522;10.702;2023-06-14T02:27:37;99134.31;;;10.71;96.45
45621;BME280;31345;51.522;10.702;2023-06-14T02:30:05;99137.06;;;10.69;95.94
45621;BME280;31345;51.522;10.702;2023-06-14T02:32:33;99142.28;;;10.69;96.25
45621;BME280;31345;51.522;10.702;2023-06-14T02:35:01;99149.34;;;10.54;96.69
45621;BME280;31345;51.522;10.702;2023-06-14T02:37:34;99138.81;;;10.41;98.27
45621;BME280;31345;51.522;10.702;2023-06-14T02:40:09;99144.47;;;10.35;99.48
45621;BME280;31345;51.522;10.702;2023-06-14T02:42:42;99140.63;;;10.40;100.00
45621;BME280;31345;51.522;10.702;2023-06-14T02:45:10;99146.22;;;10.34;100.00
45621;BME280;31345;51.522;10.702;2023-06-14T02:47:42;99144.38;;;10.36;100.00
45621;BME280;31345;51.522;10.702;2023-06-14T02:50:12;99149.53;;;10.51;99.16
45621;BME280;31345;51.522;10.702;2023-06-14T02:52:40;99152.03;;;10.52;100.00
45621;BME280;31345;51.522;10.702;2023-06-14T02:55:15;99146.53;;;10.57;99.96
45621;BME280;31345;51.522;10.702;2023-06-14T02:57:48;99142.38;;;10.68;99.31
45621;BME280;31345;51.522;10.702;2023-06-14T03:00:28;99151.59;;;10.73;98.51
45621;BME280;31345;51.522;10.702;2023-06-14T03:02:56;99150.75;;;10.73;98.47
45621;BME280;31345;51.522;10.702;2023-06-14T03:05:27;99152.75;;;10.82;98.29
45621;BME280;31345;51.522;10.702;2023-06-14T03:07:55;99154.84;;;10.77;99.00
45621;BME280;31345;51.522;10.702;2023-06-14T03:10:29;99157.22;;;10.67;99.86
45621;BME280;31345;51.522;10.702;2023-06-14T03:13:03;99170.69;;;10.61;100.00
45621;BME280;31345;51.522;10.702;2023-06-14T03:15:31;99166.31;;;10.61;100.00
45621;BME280;31345;51.522;10.702;2023-06-14T03:18:05;99176.75;;;10.61;100.00
45621;BME280;31345;51.522;10.702;2023-06-14T03:20:35;99168.22;;;10.72;100.00
45621;BME280;31345;51.522;10.702;2023-06-14T03:23:02;99177.44;;;10.78;99.85
45621;BME280;31345;51.522;10.702;2023-06-14T03:25:38;99173.28;;;10.88;98.72
45621;BME280;31345;51.522;10.702;2023-06-14T03:28:09;99173.63;;;10.56;100.00
45621;BME280;31345;51.522;10.702;2023-06-14T03:30:37;99167.78;;;10.65;100.00
45621;BME280;31345;51.522;10.702;2023-06-14T03:33:05;99170.38;;;10.65;100.00
45621;BME280;31345;51.522;10.702;2023-06-14T03:35:43;99170.19;;;10.69;99.24
45621;BME280;31345;51.522;10.702;2023-06-14T03:38:10;99174.53;;;10.55;100.00
45621;BME280;31345;51.522;10.702;2023-06-14T03:40:45;99174.75;;;10.52;100.00
45621;BME280;31345;51.522;10.702;2023-06-14T03:43:13;99178.78;;;10.43;100.00
45621;BME280;31345;51.522;10.702;2023-06-14T03:45:45;99184.34;;;10.51;99.69
45621;BME280;31345;51.522;10.702;2023-06-14T03:48:19;99184.50;;;10.35;100.00
45621;BME280;31345;51.522;10.702;2023-06-14T03:50:46;99185.34;;;10.36;100.00
45621;BME280;31345;51.522;10.702;2023-06-14T03:53:19;99190.03;;;10.31;100.00
45621;BME280;31345;51.522;10.702;2023-06-14T03:55:52;99187.75;;;10.39;100.00
45621;BME280;31345;51.522;10.702;2023-06-14T03:58:26;99182.69;;;10.50;100.00
45621;BME280;31345;51.522;10.702;2023-06-14T04:00:59;99189.44;;;10.68;100.00
45621;BME280;31345;51.522;10.702;2023-06-14T04:03:31;99200.66;;;10.55;100.00
45621;BME280;31345;51.522;10.702;2023-06-14T04:06:05;99197.25;;;10.55;100.00
45621;BME280;31345;51.522;10.702;2023-06-14T04:08:34;99194.34;;;10.59;100.00
45621;BME280;31345;51.522;10.702;2023-06-14T04:11:08;99189.69;;;10.50;100.00
45621;BME280;31345;51.522;10.702;2023-06-14T04:13:41;99197.44;;;10.51;100.00
45621;BME280;31345;51.522;10.702;2023-06-14T04:16:13;99189.75;;;10.63;100.00
45621;BME280;31345;51.522;10.702;2023-06-14T04:18:46;99191.75;;;10.72;100.00
45621;BME280;31345;51.522;10.702;2023-06-14T04:21:20;99197.13;;;10.84;100.00
45621;BME280;31345;51.522;10.702;2023-06-14T04:23:52;99196.72;;;10.90;100.00
45621;BME280;31345;51.522;10.702;2023-06-14T04:26:30;99205.41;;;10.90;100.00
45621;BME280;31345;51.522;10.702;2023-06-14T04:29:05;99219.31;;;10.91;100.00
45621;BME280;31345;51.522;10.702;2023-06-14T04:31:40;99212.34;;;11.04;100.00
45621;BME280;31345;51.522;10.702;2023-06-14T04:34:10;99209.13;;;11.14;100.00
45621;BME280;31345;51.522;10.702;2023-06-14T04:36:45;99208.44;;;11.38;100.00
45621;BME280;31345;51.522;10.702;2023-06-14T04:39:21;99215.88;;;11.70;100.00
45621;BME280;31345;51.522;10.702;2023-06-14T04:41:50;99216.19;;;11.91;100.00
45621;BME280;31345;51.522;10.702;2023-06-14T04:44:23;99218.06;;;12.02;100.00
45621;BME280;31345;51.522;10.702;2023-06-14T04:46:56;99222.38;;;12.03;100.00
45621;BME280;31345;51.522;10.702;2023-06-14T04:49:25;99214.28;;;12.06;100.00
45621;BME280;31345;51.522;10.702;2023-06-14T04:51:58;99222.25;;;12.18;100.00
45621;BME280;31345;51.522;10.702;2023-06-14T04:54:33;99223.47;;;12.25;100.00
45621;BME280;31345;51.522;10.702;2023-06-14T04:57:10;99220.53;;;12.30;100.00
45621;BME280;31345;51.522;10.702;2023-06-14T04:59:40;99216.41;;;12.39;100.00
45621;BME280;31345;51.522;10.702;2023-06-14T05:02:07;99217.44;;;12.73;99.83
45621;BME280;31345;51.522;10.702;2023-06-14T05:04:40;99212.97;;;13.23;94.15
45621;BME280;31345;51.522;10.702;2023-06-14T05:07:14;99226.22;;;13.80;95.01
45621;BME280;31345;51.522;10.702;2023-06-14T05:09:45;99230.28;;;14.19;94.49
45621;BME280;31345;51.522;10.702;2023-06-14T05:12:21;99219.69;;;14.53;87.88
45621;BME280;31345;51.522;10.702;2023-06-14T05:14:54;99217.00;;;14.76;86.42
45621;BME280;31345;51.522;10.702;2023-06-14T05:17:30;99221.38;;;14.98;87.24
45621;BME280;31345;51.522;10.702;2023-06-14T05:19:58;99218.19;;;15.16;85.35
45621;BME280;31345;51.522;10.702;2023-06-14T05:22:28;99225.94;;;15.17;83.92
45621;BME280;31345;51.522;10.702;2023-06-14T05:24:57;99224.91;;;15.51;82.81
45621;BME280;31345;51.522;10.702;2023-06-14T05:27:30;99222.47;;;15.60;84.31
45621;BME280;31345;51.522;10.702;2023-06-14T05:30:04;99219.53;;;15.84;81.66
45621;BME280;31345;51.522;10.702;2023-06-14T05:32:36;99214.31;;;15.94;80.48
45621;BME280;31345;51.522;10.702;2023-06-14T05:35:09;99218.50;;;16.06;77.96
45621;BME280;31345;51.522;10.702;2023-06-14T05:37:36;99219.75;;;16.02;80.28
45621;BME280;31345;51.522;10.702;2023-06-14T05:40:05;99212.16;;;16.19;79.63
45621;BME280;31345;51.522;10.702;2023-06-14T05:42:42;99217.78;;;16.36;78.55
45621;BME280;31345;51.522;10.702;2023-06-14T05:45:09;99206.31;;;16.56;77.46
45621;BME280;31345;51.522;10.702;2023-06-14T05:47:42;99212.53;;;16.45;74.60
45621;BME280;31345;51.522;10.702;2023-06-14T05:50:14;99216.13;;;16.35;74.72
45621;BME280;31345;51.522;10.702;2023-06-14T05:52:42;99215.03;;;16.47;73.84
45621;BME280;31345;51.522;10.702;2023-06-14T05:55:16;99218.81;;;16.54;74.85
45621;BME280;31345;51.522;10.702;2023-06-14T05:57:49;99218.38;;;16.49;74.35
45621;BME280;31345;51.522;10.702;2023-06-14T06:00:23;99222.84;;;16.68;75.65
45621;BME280;31345;51.522;10.702;2023-06-14T06:02:50;99224.25;;;16.82;71.95
45621;BME280;31345;51.522;10.702;2023-06-14T06:05:18;99223.00;;;17.06;74.67
45621;BME280;31345;51.522;10.702;2023-06-14T06:07:46;99215.78;;;16.98;71.75
45621;BME280;31345;51.522;10.702;2023-06-14T06:10:19;99223.97;;;17.05;72.94
45621;BME280;31345;51.522;10.702;2023-06-14T06:12:53;99219.34;;;17.27;72.67
45621;BME280;31345;51.522;10.702;2023-06-14T06:15:20;99228.38;;;17.34;71.93
45621;BME280;31345;51.522;10.702;2023-06-14T06:17:48;99226.16;;;17.49;71.39
45621;BME280;31345;51.522;10.702;2023-06-14T06:20:15;99220.31;;;17.56;70.78
45621;BME280;31345;51.522;10.702;2023-06-14T06:22:48;99229.16;;;17.74;69.92
45621;BME280;31345;51.522;10.702;2023-06-14T06:25:16;99226.72;;;17.33;68.21
45621;BME280;31345;51.522;10.702;2023-06-14T06:27:50;99223.38;;;17.41;69.63
45621;BME280;31345;51.522;10.702;2023-06-14T06:30:25;99235.03;;;17.68;68.59
45621;BME280;31345;51.522;10.702;2023-06-14T06:32:52;99234.91;;;17.60;68.35
45621;BME280;31345;51.522;10.702;2023-06-14T06:35:26;99239.50;;;17.58;68.13
45621;BME280;31345;51.522;10.702;2023-06-14T06:38:00;99249.09;;;17.69;70.62
45621;BME280;31345;51.522;10.702;2023-06-14T06:40:32;99234.69;;;17.91;67.00
45621;BME280;31345;51.522;10.702;2023-06-14T06:43:05;99240.31;;;18.06;67.91
45621;BME280;31345;51.522;10.702;2023-06-14T06:45:47;99246.00;;;18.11;68.34
45621;BME280;31345;51.522;10.702;2023-06-14T06:48:20;99245.03;;;18.41;67.91
45621;BME280;31345;51.522;10.702;2023-06-14T06:50:47;99239.13;;;18.47;65.17
45621;BME280;31345;51.522;10.702;2023-06-14T06:53:20;99241.06;;;18.55;62.71
45621;BME280;31345;51.522;10.702;2023-06-14T06:55:48;99243.59;;;18.56;65.39
45621;BME280;31345;51.522;10.702;2023-06-14T06:58:20;99242.69;;;18.84;67.55
45621;BME280;31345;51.522;10.702;2023-06-14T07:00:54;99248.28;;;18.81;66.06
45621;BME280;31345;51.522;10.702;2023-06-14T07:03:22;99250.63;;;19.02;65.25
45621;BME280;31345;51.522;10.702;2023-06-14T07:05:54;99249.69;;;19.11;63.40
45621;BME280;31345;51.522;10.702;2023-06-14T07:08:21;99257.59;;;19.03;62.99
45621;BME280;31345;51.522;10.702;2023-06-14T07:10:54;99260.31;;;19.11;62.05
45621;BME280;31345;51.522;10.702;2023-06-14T07:13:26;99262.88;;;19.21;61.29
45621;BME280;31345;51.522;10.702;2023-06-14T07:16:01;99258.19;;;19.33;60.40
45621;BME280;31345;51.522;10.702;2023-06-14T07:18:29;99263.88;;;19.02;59.77
45621;BME280;31345;51.522;10.702;2023-06-14T07:21:02;99265.97;;;19.35;60.17
45621;BME280;31345;51.522;10.702;2023-06-14T07:23:34;99269.00;;;19.40;59.91
45621;BME280;31345;51.522;10.702;2023-06-14T07:26:07;99261.09;;;19.48;57.08
45621;BME280;31345;51.522;10.702;2023-06-14T07:28:39;99263.44;;;19.51;59.77
45621;BME280;31345;51.522;10.702;2023-06-14T07:31:13;99262.59;;;19.51;58.33
45621;BME280;31345;51.522;10.702;2023-06-14T07:33:41;99268.72;;;19.70;57.17
45621;BME280;31345;51.522;10.702;2023-06-14T07:36:08;99255.66;;;19.76;56.77
45621;BME280;31345;51.522;10.702;2023-06-14T07:38:41;99265.59;;;19.56;57.06
45621;BME280;31345;51.522;10.702;2023-06-14T07:41:13;99268.84;;;19.60;57.21
45621;BME280;31345;51.522;10.702;2023-06-14T07:43:46;99261.97;;;19.75;57.22
45621;BME280;31345;51.522;10.702;2023-06-14T07:46:15;99261.69;;;19.60;56.98
45621;BME280;31345;51.522;10.702;2023-06-14T07:48:42;99265.22;;;19.96;59.55
45621;BME280;31345;51.522;10.702;2023-06-14T07:51:15;99264.47;;;19.77;56.60
45621;BME280;31345;51.522;10.702;2023-06-14T07:53:48;99269.44;;;19.80;59.26
45621;BME280;31345;51.522;10.702;2023-06-14T07:56:15;99261.38;;;19.63;58.28
45621;BME280;31345;51.522;10.702;2023-06-14T07:58:48;99263.50;;;19.15;59.84
45621;BME280;31345;51.522;10.702;2023-06-14T08:01:17;99262.69;;;19.41;59.05
45621;BME280;31345;51.522;10.702;2023-06-14T08:03:51;99271.41;;;19.51;57.95
45621;BME280;31345;51.522;10.702;2023-06-14T08:06:23;99281.53;;;20.01;61.93
45621;BME280;31345;51.522;10.702;2023-06-14T08:08:56;99268.25;;;19.56;57.53
45621;BME280;31345;51.522;10.702;2023-06-14T08:11:23;99267.94;;;19.77;56.26
45621;BME280;31345;51.522;10.702;2023-06-14T08:13:57;99276.53;;;19.71;61.83
45621;BME280;31345;51.522;10.702;2023-06-14T08:16:31;99272.16;;;19.43;57.00
45621;BME280;31345;51.522;10.702;2023-06-14T08:19:10;99284.31;;;19.10;59.25
45621;BME280;31345;51.522;10.702;2023-06-14T08:21:42;99280.50;;;18.76;57.77
45621;BME280;31345;51.522;10.702;2023-06-14T08:24:15;99282.25;;;18.67;58.84
45621;BME280;31345;51.522;10.702;2023-06-14T08:26:50;99287.03;;;19.36;63.95
45621;BME280;31345;51.522;10.702;2023-06-14T08:29:18;99280.03;;;19.53;60.23
45621;BME280;31345;51.522;10.702;2023-06-14T08:31:56;99281.47;;;19.66;59.14
45621;BME280;31345;51.522;10.702;2023-06-14T08:34:28;99280.09;;;20.15;54.61
45621;BME280;31345;51.522;10.702;2023-06-14T08:36:55;99280.28;;;20.22;58.95
45621;BME280;31345;51.522;10.702;2023-06-14T08:39:28;99274.16;;;20.29;55.40
45621;BME280;31345;51.522;10.702;2023-06-14T08:41:56;99276.69;;;20.39;56.67
45621;BME280;31345;51.522;10.702;2023-06-14T08:44:24;99276.88;;;20.03;56.82
45621;BME280;31345;51.522;10.702;2023-06-14T08:46:59;99281.47;;;20.27;53.93
45621;BME280;31345;51.522;10.702;2023-06-14T08:49:27;99273.00;;;20.67;57.23
45621;BME280;31345;51.522;10.702;2023-06-14T08:51:57;99281.66;;;20.94;57.27
45621;BME280;31345;51.522;10.702;2023-06-14T08:54:31;99277.03;;;20.88;51.14
45621;BME280;31345;51.522;10.702;2023-06-14T08:57:06;99280.63;;;20.70;50.45
45621;BME280;31345;51.522;10.702;2023-06-14T08:59:44;99285.00;;;20.88;51.95
45621;BME280;31345;51.522;10.702;2023-06-14T09:02:21;99286.53;;;20.47;54.19
45621;BME280;31345;51.522;10.702;2023-06-14T09:04:54;99297.44;;;20.87;57.73
45621;BME280;31345;51.522;10.702;2023-06-14T09:07:25;99289.16;;;21.40;55.51
45621;BME280;31345;51.522;10.702;2023-06-14T09:10:07;99287.19;;;21.26;52.98
45621;BME280;31345;51.522;10.702;2023-06-14T09:12:41;99294.50;;;21.48;53.96
45621;BME280;31345;51.522;10.702;2023-06-14T09:15:13;99287.38;;;21.49;54.46
45621;BME280;31345;51.522;10.702;2023-06-14T09:17:47;99283.53;;;21.77;53.92
45621;BME280;31345;51.522;10.702;2023-06-14T09:20:20;99282.53;;;21.28;49.19
45621;BME280;31345;51.522;10.702;2023-06-14T09:22:53;99292.13;;;20.87;55.59
45621;BME280;31345;51.522;10.702;2023-06-14T09:25:26;99294.78;;;20.36;56.60
45621;BME280;31345;51.522;10.702;2023-06-14T09:27:53;99292.13;;;20.95;54.12
45621;BME280;31345;51.522;10.702;2023-06-14T09:30:26;99295.34;;;21.07;56.17
45621;BME280;31345;51.522;10.702;2023-06-14T09:32:55;99293.16;;;20.94;55.17
45621;BME280;31345;51.522;10.702;2023-06-14T09:35:27;99290.63;;;20.84;53.33
45621;BME280;31345;51.522;10.702;2023-06-14T09:37:57;99300.13;;;20.44;55.94
45621;BME280;31345;51.522;10.702;2023-06-14T09:40:24;99287.94;;;20.60;55.37
45621;BME280;31345;51.522;10.702;2023-06-14T09:42:57;99292.97;;;20.79;56.22
45621;BME280;31345;51.522;10.702;2023-06-14T09:45:30;99287.41;;;20.64;50.79
45621;BME280;31345;51.522;10.702;2023-06-14T09:48:05;99289.25;;;20.64;51.19
45621;BME280;31345;51.522;10.702;2023-06-14T09:50:39;99292.72;;;20.56;52.67
45621;BME280;31345;51.522;10.702;2023-06-14T09:53:07;99300.63;;;20.48;54.17
45621;BME280;31345;51.522;10.702;2023-06-14T09:55:42;99289.50;;;21.20;52.39
45621;BME280;31345;51.522;10.702;2023-06-14T09:58:16;99282.88;;;21.33;51.69
45621;BME280;31345;51.522;10.702;2023-06-14T10:00:44;99284.84;;;21.39;52.07
45621;BME280;31345;51.522;10.702;2023-06-14T10:03:22;99296.66;;;21.70;51.43
45621;BME280;31345;51.522;10.702;2023-06-14T10:05:58;99297.50;;;21.62;53.31
45621;BME280;31345;51.522;10.702;2023-06-14T10:08:31;99296.50;;;21.30;51.92
45621;BME280;31345;51.522;10.702;2023-06-14T10:11:05;99294.69;;;21.64;51.64
45621;BME280;31345;51.522;10.702;2023-06-14T10:13:38;99301.69;;;21.56;50.48
45621;BME280;31345;51.522;10.702;2023-06-14T10:16:15;99296.84;;;21.52;51.76
45621;BME280;31345;51.522;10.702;2023-06-14T10:18:57;99296.50;;;21.63;51.92
45621;BME280;31345;51.522;10.702;2023-06-14T10:21:37;99292.25;;;22.19;51.17
45621;BME280;31345;51.522;10.702;2023-06-14T10:24:16;99280.06;;;22.64;51.00
45621;BME280;31345;51.522;10.702;2023-06-14T10:26:51;99285.31;;;22.49;46.93
45621;BME280;31345;51.522;10.702;2023-06-14T10:29:24;99277.28;;;22.81;48.82
45621;BME280;31345;51.522;10.702;2023-06-14T10:31:57;99269.44;;;23.11;45.73
45621;BME280;31345;51.522;10.702;2023-06-14T10:34:32;99279.66;;;22.44;47.33
45621;BME280;31345;51.522;10.702;2023-06-14T10:37:06;99278.88;;;22.67;44.68
45621;BME280;31345;51.522;10.702;2023-06-14T10:39:38;99263.88;;;22.43;47.13
45621;BME280;31345;51.522;10.702;2023-06-14T10:42:12;99268.53;;;22.32;44.53
45621;BME280;31345;51.522;10.702;2023-06-14T10:44:45;99270.44;;;22.87;50.13
45621;BME280;31345;51.522;10.702;2023-06-14T10:47:26;99269.31;;;23.28;45.63
45621;BME280;31345;51.522;10.702;2023-06-14T10:50:05;99266.69;;;23.20;42.15
45621;BME280;31345;51.522;10.702;2023-06-14T10:52:39;99256.50;;;22.76;43.67
45621;BME280;31345;51.522;10.702;2023-06-14T10:55:13;99258.03;;;22.39;47.16
45621;BME280;31345;51.522;10.702;2023-06-14T10:57:47;99256.09;;;22.16;47.13
45621;BME280;31345;51.522;10.702;2023-06-14T11:00:24;99256.47;;;22.53;47.61
45621;BME280;31345;51.522;10.702;2023-06-14T11:06:15;99246.44;;;22.87;42.69
45621;BME280;31345;51.522;10.702;2023-06-14T11:09:12;99248.31;;;22.06;47.16
45621;BME280;31345;51.522;10.702;2023-06-14T11:11:53;99243.94;;;21.82;49.81
45621;BME280;31345;51.522;10.702;2023-06-14T11:14:29;99241.13;;;21.58;49.72
45621;BME280;31345;51.522;10.702;2023-06-14T11:17:02;99249.31;;;21.57;54.44
45621;BME280;31345;51.522;10.702;2023-06-14T11:19:35;99242.97;;;21.58;53.84
45621;BME280;31345;51.522;10.702;2023-06-14T11:22:04;99242.84;;;22.08;50.98
45621;BME280;31345;51.522;10.702;2023-06-14T11:24:37;99235.66;;;22.80;47.91
45621;BME280;31345;51.522;10.702;2023-06-14T11:27:09;99236.78;;;23.09;48.64
45621;BME280;31345;51.522;10.702;2023-06-14T11:29:48;99239.38;;;23.71;50.82
45621;BME280;31345;51.522;10.702;2023-06-14T11:32:21;99225.88;;;23.58;44.06
45621;BME280;31345;51.522;10.702;2023-06-14T11:34:53;99228.03;;;23.39;50.69
45621;BME280;31345;51.522;10.702;2023-06-14T11:37:28;99227.88;;;23.56;49.55
45621;BME280;31345;51.522;10.702;2023-06-14T11:39:56;99232.47;;;23.92;48.20
45621;BME280;31345;51.522;10.702;2023-06-14T11:42:29;99221.00;;;23.91;44.27
45621;BME280;31345;51.522;10.702;2023-06-14T11:45:02;99231.97;;;23.28;46.06
45621;BME280;31345;51.522;10.702;2023-06-14T11:47:37;99230.66;;;22.54;50.96
45621;BME280;31345;51.522;10.702;2023-06-14T11:50:06;99229.84;;;23.00;49.66
45621;BME280;31345;51.522;10.702;2023-06-14T11:52:41;99214.13;;;23.05;44.77
45621;BME280;31345;51.522;10.702;2023-06-14T11:55:13;99215.41;;;22.94;48.04
45621;BME280;31345;51.522;10.702;2023-06-14T11:57:46;99227.50;;;22.82;50.60
45621;BME280;31345;51.522;10.702;2023-06-14T12:00:19;99229.38;;;22.49;50.48
45621;BME280;31345;51.522;10.702;2023-06-14T12:02:52;99230.50;;;22.15;49.49
45621;BME280;31345;51.522;10.702;2023-06-14T12:05:27;99237.25;;;22.26;52.97
45621;BME280;31345;51.522;10.702;2023-06-14T12:08:04;99225.25;;;21.98;50.13
45621;BME280;31345;51.522;10.702;2023-06-14T12:10:42;99228.94;;;21.89;47.84
45621;BME280;31345;51.522;10.702;2023-06-14T12:13:17;99227.56;;;22.33;50.26
45621;BME280;31345;51.522;10.702;2023-06-14T12:15:54;99227.41;;;23.13;50.58
45621;BME280;31345;51.522;10.702;2023-06-14T12:18:33;99229.84;;;23.23;51.68
45621;BME280;31345;51.522;10.702;2023-06-14T12:21:03;99223.56;;;22.93;46.68
45621;BME280;31345;51.522;10.702;2023-06-14T12:23:45;99231.09;;;23.51;49.28
45621;BME280;31345;51.522;10.702;2023-06-14T12:26:19;99229.34;;;23.43;45.54
45621;BME280;31345;51.522;10.702;2023-06-14T12:28:52;99221.84;;;24.07;44.74
45621;BME280;31345;51.522;10.702;2023-06-14T12:31:20;99228.34;;;24.20;45.36
45621;BME280;31345;51.522;10.702;2023-06-14T12:33:53;99230.06;;;24.27;47.08
45621;BME280;31345;51.522;10.702;2023-06-14T12:36:21;99215.09;;;24.48;43.70
45621;BME280;31345;51.522;10.702;2023-06-14T12:38:55;99214.22;;;24.41;43.99
45621;BME280;31345;51.522;10.702;2023-06-14T12:41:27;99219.69;;;24.02;45.31
45621;BME280;31345;51.522;10.702;2023-06-14T12:44:00;99219.88;;;23.86;47.77
45621;BME280;31345;51.522;10.702;2023-06-14T12:46:30;99220.00;;;23.24;48.48
45621;BME280;31345;51.522;10.702;2023-06-14T12:49:01;99220.81;;;23.24;49.92
45621;BME280;31345;51.522;10.702;2023-06-14T12:53:57;99223.63;;;24.22;48.23
45621;BME280;31345;51.522;10.702;2023-06-14T12:56:25;99222.91;;;24.28;47.46
45621;BME280;31345;51.522;10.702;2023-06-14T12:58:58;99220.34;;;23.89;45.68
45621;BME280;31345;51.522;10.702;2023-06-14T13:01:26;99224.31;;;23.63;49.48
45621;BME280;31345;51.522;10.702;2023-06-14T13:03:58;99229.34;;;24.03;50.30
45621;BME280;31345;51.522;10.702;2023-06-14T13:06:31;99214.34;;;24.54;45.02
45621;BME280;31345;51.522;10.702;2023-06-14T13:09:00;99222.88;;;24.65;46.23
45621;BME280;31345;51.522;10.702;2023-06-14T13:11:30;99219.56;;;24.26;44.62
45621;BME280;31345;51.522;10.702;2023-06-14T13:13:57;99217.41;;;23.69;45.48
45621;BME280;31345;51.522;10.702;2023-06-14T13:16:30;99218.34;;;22.99;47.20
45621;BME280;31345;51.522;10.702;2023-06-14T13:19:02;99222.19;;;22.50;47.61